sensor_id;sensor_type;location;lat;lon;timestamp;P1;durP1;ratioP1;P2;durP2;ratioP2
69795;SDS011;57073;45.650;9.612;2022-10-28T00:02:11;12.13;;;6.40;;
69795;SDS011;57073;45.650;9.612;2022-10-28T00:12:11;13.85;;;6.32;;
69795;SDS011;57073;45.650;9.612;2022-10-28T00:22:11;16.20;;;6.10;;
69795;SDS011;57073;45.650;9.612;2022-10-28T00:32:12;11.55;;;4.75;;
69795;SDS011;57073;45.650;9.612;2022-10-28T00:42:12;10.30;;;4.10;;
69795;SDS011;57073;45.650;9.612;2022-10-28T00:52:21;12.98;;;4.30;;
69795;SDS011;57073;45.650;9.612;2022-10-28T01:02:26;9.07;;;4.30;;
69795;SDS011;57073;45.650;9.612;2022-10-28T01:12:34;6.00;;;3.87;;
69795;SDS011;57073;45.650;9.612;2022-10-28T01:33:25;9.97;;;4.07;;
69795;SDS011;57073;45.650;9.612;2022-10-28T01:43:33;6.90;;;3.60;;
69795;SDS011;57073;45.650;9.612;2022-10-28T01:53:41;9.60;;;4.27;;
69795;SDS011;57073;45.650;9.612;2022-10-28T02:03:46;11.23;;;4.20;;
69795;SDS011;57073;45.650;9.612;2022-10-28T02:24:07;9.82;;;3.72;;
69795;SDS011;57073;45.650;9.612;2022-10-28T02:34:17;7.00;;;3.37;;
69795;SDS011;57073;45.650;9.612;2022-10-28T02:44:24;6.37;;;3.50;;
69795;SDS011;57073;45.650;9.612;2022-10-28T02:54:34;6.20;;;3.58;;
69795;SDS011;57073;45.650;9.612;2022-10-28T03:04:38;14.07;;;4.13;;
69795;SDS011;57073;45.650;9.612;2022-10-28T03:14:39;8.15;;;3.83;;
69795;SDS011;57073;45.650;9.612;2022-10-28T03:24:39;8.50;;;3.60;;
69795;SDS011;57073;45.650;9.612;2022-10-28T03:34:40;8.43;;;3.88;;
69795;SDS011;57073;45.650;9.612;2022-10-28T03:44:40;6.20;;;3.20;;
69795;SDS011;57073;45.650;9.612;2022-10-28T03:54:40;6.17;;;2.87;;
69795;SDS011;57073;45.650;9.612;2022-10-28T04:04:41;5.25;;;2.63;;
69795;SDS011;57073;45.650;9.612;2022-10-28T04:14:41;6.70;;;2.80;;
69795;SDS011;57073;45.650;9.612;2022-10-28T04:24:41;8.05;;;2.80;;
69795;SDS011;57073;45.650;9.612;2022-10-28T04:34:42;8.27;;;2.90;;
69795;SDS011;57073;45.650;9.612;2022-10-28T04:44:42;5.37;;;3.07;;
69795;SDS011;57073;45.650;9.612;2022-10-28T04:54:43;6.40;;;3.42;;
69795;SDS011;57073;45.650;9.612;2022-10-28T05:04:43;7.13;;;2.90;;
69795;SDS011;57073;45.650;9.612;2022-10-28T05:14:43;9.07;;;3.63;;
69795;SDS011;57073;45.650;9.612;2022-10-28T05:24:44;10.27;;;3.58;;
69795;SDS011;57073;45.650;9.612;2022-10-28T05:34:44;7.50;;;3.45;;
69795;SDS011;57073;45.650;9.612;2022-10-28T05:44:44;9.45;;;3.63;;
69795;SDS011;57073;45.650;9.612;2022-10-28T05:54:45;7.70;;;3.80;;
69795;SDS011;57073;45.650;9.612;2022-10-28T06:04:45;8.75;;;3.28;;
69795;SDS011;57073;45.650;9.612;2022-10-28T06:14:45;9.10;;;3.28;;
69795;SDS011;57073;45.650;9.612;2022-10-28T06:24:46;7.80;;;3.57;;
69795;SDS011;57073;45.650;9.612;2022-10-28T06:34:46;7.47;;;3.30;;
69795;SDS011;57073;45.650;9.612;2022-10-28T06:44:46;7.22;;;3.47;;
69795;SDS011;57073;45.650;9.612;2022-10-28T06:54:47;9.67;;;3.07;;
69795;SDS011;57073;45.650;9.612;2022-10-28T07:04:47;8.43;;;3.23;;
69795;SDS011;57073;45.650;9.612;2022-10-28T07:14:47;7.85;;;2.80;;
69795;SDS011;57073;45.650;9.612;2022-10-28T07:24:48;10.20;;;3.47;;
69795;SDS011;57073;45.650;9.612;2022-10-28T07:34:48;11.17;;;3.80;;
69795;SDS011;57073;45.650;9.612;2022-10-28T07:44:48;10.40;;;3.88;;
69795;SDS011;57073;45.650;9.612;2022-10-28T07:54:49;8.57;;;4.03;;
69795;SDS011;57073;45.650;9.612;2022-10-28T08:04:50;10.90;;;4.27;;
69795;SDS011;57073;45.650;9.612;2022-10-28T08:14:50;8.20;;;3.33;;
69795;SDS011;57073;45.650;9.612;2022-10-28T08:24:51;7.88;;;3.15;;
69795;SDS011;57073;45.650;9.612;2022-10-28T08:34:51;15.50;;;5.63;;
69795;SDS011;57073;45.650;9.612;2022-10-28T08:55:03;13.80;;;5.15;;
69795;SDS011;57073;45.650;9.612;2022-10-28T09:05:20;9.97;;;5.00;;
69795;SDS011;57073;45.650;9.612;2022-10-28T09:35:53;8.37;;;3.10;;
69795;SDS011;57073;45.650;9.612;2022-10-28T09:45:57;8.40;;;2.70;;
69795;SDS011;57073;45.650;9.612;2022-10-28T09:56:11;7.25;;;2.30;;
69795;SDS011;57073;45.650;9.612;2022-10-28T10:06:12;7.70;;;3.37;;
69795;SDS011;57073;45.650;9.612;2022-10-28T10:26:39;16.47;;;6.30;;
69795;SDS011;57073;45.650;9.612;2022-10-28T10:36:46;14.98;;;7.38;;
69795;SDS011;57073;45.650;9.612;2022-10-28T10:57:07;26.48;;;12.18;;
69795;SDS011;57073;45.650;9.612;2022-10-28T11:07:11;24.27;;;11.57;;
69795;SDS011;57073;45.650;9.612;2022-10-28T11:17:21;23.63;;;11.55;;
69795;SDS011;57073;45.650;9.612;2022-10-28T11:37:49;28.27;;;13.27;;
69795;SDS011;57073;45.650;9.612;2022-10-28T11:58:50;25.00;;;11.00;;
69795;SDS011;57073;45.650;9.612;2022-10-28T12:19:28;25.08;;;11.07;;
69795;SDS011;57073;45.650;9.612;2022-10-28T12:29:38;18.30;;;9.87;;
69795;SDS011;57073;45.650;9.612;2022-10-28T12:39:44;23.20;;;10.07;;
69795;SDS011;57073;45.650;9.612;2022-10-28T12:49:55;22.17;;;10.73;;
69795;SDS011;57073;45.650;9.612;2022-10-28T13:00:05;25.37;;;11.40;;
69795;SDS011;57073;45.650;9.612;2022-10-28T13:10:18;24.38;;;11.18;;
69795;SDS011;57073;45.650;9.612;2022-10-28T13:31:09;18.33;;;9.30;;
69795;SDS011;57073;45.650;9.612;2022-10-28T13:41:15;20.10;;;9.20;;
69795;SDS011;57073;45.650;9.612;2022-10-28T13:51:43;14.03;;;7.83;;
69795;SDS011;57073;45.650;9.612;2022-10-28T14:01:49;22.43;;;9.57;;
69795;SDS011;57073;45.650;9.612;2022-10-28T14:22:07;15.23;;;8.00;;
69795;SDS011;57073;45.650;9.612;2022-10-28T14:33:15;17.83;;;9.00;;
69795;SDS011;57073;45.650;9.612;2022-10-28T14:52:48;21.43;;;10.07;;
69795;SDS011;57073;45.650;9.612;2022-10-28T15:02:50;33.70;;;15.82;;
69795;SDS011;57073;45.650;9.612;2022-10-28T15:12:52;30.43;;;15.67;;
69795;SDS011;57073;45.650;9.612;2022-10-28T15:23:09;33.63;;;15.63;;
69795;SDS011;57073;45.650;9.612;2022-10-28T15:33:28;32.85;;;15.10;;
69795;SDS011;57073;45.650;9.612;2022-10-28T15:43:30;29.30;;;15.70;;
69795;SDS011;57073;45.650;9.612;2022-10-28T15:53:31;35.30;;;17.17;;
69795;SDS011;57073;45.650;9.612;2022-10-28T16:03:42;35.63;;;17.13;;
69795;SDS011;57073;45.650;9.612;2022-10-28T16:13:47;36.30;;;16.40;;
69795;SDS011;57073;45.650;9.612;2022-10-28T16:23:49;33.27;;;16.60;;
69795;SDS011;57073;45.650;9.612;2022-10-28T16:33:56;43.37;;;17.53;;
69795;SDS011;57073;45.650;9.612;2022-10-28T16:43:57;33.75;;;16.10;;
69795;SDS011;57073;45.650;9.612;2022-10-28T16:53:58;38.45;;;16.13;;
69795;SDS011;57073;45.650;9.612;2022-10-28T17:03:59;38.97;;;18.27;;
69795;SDS011;57073;45.650;9.612;2022-10-28T17:14:00;42.15;;;17.70;;
69795;SDS011;57073;45.650;9.612;2022-10-28T17:24:00;35.37;;;17.80;;
69795;SDS011;57073;45.650;9.612;2022-10-28T17:34:00;39.10;;;18.42;;
69795;SDS011;57073;45.650;9.612;2022-10-28T17:44:01;34.95;;;17.40;;
69795;SDS011;57073;45.650;9.612;2022-10-28T17:54:01;39.17;;;17.40;;
69795;SDS011;57073;45.650;9.612;2022-10-28T18:04:05;37.80;;;18.08;;
69795;SDS011;57073;45.650;9.612;2022-10-28T18:14:07;23.63;;;12.07;;
69795;SDS011;57073;45.650;9.612;2022-10-28T18:24:07;18.27;;;9.52;;
69795;SDS011;57073;45.650;9.612;2022-10-28T18:34:08;16.52;;;7.97;;
69795;SDS011;57073;45.650;9.612;2022-10-28T18:44:09;17.77;;;6.60;;
69795;SDS011;57073;45.650;9.612;2022-10-28T18:54:15;16.10;;;6.73;;
69795;SDS011;57073;45.650;9.612;2022-10-28T19:04:16;12.50;;;6.77;;
69795;SDS011;57073;45.650;9.612;2022-10-28T19:14:16;12.50;;;6.30;;
69795;SDS011;57073;45.650;9.612;2022-10-28T19:24:16;18.45;;;6.97;;
69795;SDS011;57073;45.650;9.612;2022-10-28T19:34:17;15.17;;;6.70;;
69795;SDS011;57073;45.650;9.612;2022-10-28T19:44:18;11.13;;;6.37;;
69795;SDS011;57073;45.650;9.612;2022-10-28T19:54:18;13.70;;;6.50;;
69795;SDS011;57073;45.650;9.612;2022-10-28T20:04:18;13.90;;;7.80;;
69795;SDS011;57073;45.650;9.612;2022-10-28T20:14:20;14.60;;;7.50;;
69795;SDS011;57073;45.650;9.612;2022-10-28T20:24:20;14.88;;;7.63;;
69795;SDS011;57073;45.650;9.612;2022-10-28T20:34:21;15.95;;;7.97;;
69795;SDS011;57073;45.650;9.612;2022-10-28T20:44:36;14.63;;;8.37;;
69795;SDS011;57073;45.650;9.612;2022-10-28T20:54:37;15.43;;;7.20;;
69795;SDS011;57073;45.650;9.612;2022-10-28T21:04:37;12.77;;;6.32;;
69795;SDS011;57073;45.650;9.612;2022-10-28T21:14:37;11.67;;;5.60;;
69795;SDS011;57073;45.650;9.612;2022-10-28T21:24:38;12.73;;;6.22;;
69795;SDS011;57073;45.650;9.612;2022-10-28T21:34:38;10.33;;;6.00;;
69795;SDS011;57073;45.650;9.612;2022-10-28T21:44:39;11.53;;;5.83;;
69795;SDS011;57073;45.650;9.612;2022-10-28T21:54:39;14.20;;;5.03;;
69795;SDS011;57073;45.650;9.612;2022-10-28T22:04:41;11.70;;;5.50;;
69795;SDS011;57073;45.650;9.612;2022-10-28T22:14:41;10.80;;;5.37;;
69795;SDS011;57073;45.650;9.612;2022-10-28T22:24:41;10.40;;;5.03;;
69795;SDS011;57073;45.650;9.612;2022-10-28T22:34:42;10.97;;;5.10;;
69795;SDS011;57073;45.650;9.612;2022-10-28T22:44:43;9.07;;;4.75;;
69795;SDS011;57073;45.650;9.612;2022-10-28T22:54:43;11.87;;;5.23;;
69795;SDS011;57073;45.650;9.612;2022-10-28T23:04:43;9.73;;;5.38;;
69795;SDS011;57073;45.650;9.612;2022-10-28T23:14:43;10.98;;;4.72;;
69795;SDS011;57073;45.650;9.612;2022-10-28T23:24:44;10.70;;;4.83;;
69795;SDS011;57073;45.650;9.612;2022-10-28T23:34:44;9.63;;;4.57;;
69795;SDS011;57073;45.650;9.612;2022-10-28T23:44:44;8.50;;;4.05;;
69795;SDS011;57073;45.650;9.612;2022-10-28T23:54:45;10.60;;;4.10;;
